Airport View

Enter AWOS ICAO identifier for current METAR.

ex. KFNL

KMCC 192120Z AUTO 17006KT CLR 28/13 A2993 RMK AO2

19 Aug 2019 21:28

Frequency: 125.975

Phone: 916-641-1272

Other Area AWOS: KMHR - KSMF - KSAC - KLHM

TAF KMHR 191744Z 1918/2018 23008KT P6SM SKC FM200600 16005KT P6SM SKC